createdAt,value
2018-09-09T00:00:35.025Z,99647.27
2018-09-09T00:03:05.283Z,99646.34
2018-09-09T00:05:35.788Z,99647.95
2018-09-09T00:08:06.645Z,99642.81
2018-09-09T00:10:37.144Z,99637.52
2018-09-09T00:13:07.813Z,99645.69
2018-09-09T00:15:38.575Z,99643.50
2018-09-09T00:18:09.415Z,99641.39
2018-09-09T00:20:40.011Z,99643.89
2018-09-09T00:23:10.720Z,99639.03
2018-09-09T00:25:41.244Z,99633.11
2018-09-09T00:28:12.054Z,99637.59
2018-09-09T00:30:42.564Z,99639.02
2018-09-09T00:33:13.044Z,99643.61
2018-09-09T00:35:43.576Z,99637.36
2018-09-09T00:38:14.166Z,99635.07
2018-09-09T00:40:44.719Z,99633.14
2018-09-09T00:43:15.247Z,99624.16
2018-09-09T00:45:46.085Z,99625.91
2018-09-09T00:48:16.577Z,99629.55
2018-09-09T00:50:52.099Z,99633.28
2018-09-09T00:53:46.068Z,99630.53
2018-09-09T00:56:17.392Z,99628.23
2018-09-09T00:58:49.909Z,99625.27
2018-09-09T01:01:20.636Z,99626.52
2018-09-09T01:03:51.819Z,99623.52
2018-09-09T01:06:22.677Z,99629.59
2018-09-09T01:08:54.075Z,99629.73
2018-09-09T01:11:24.920Z,99630.20
2018-09-09T01:13:55.640Z,99628.94
2018-09-09T01:16:26.279Z,99622.38
2018-09-09T01:18:56.880Z,99626.57
2018-09-09T01:21:27.903Z,99630.11
2018-09-09T01:23:58.624Z,99626.64
2018-09-09T01:26:29.308Z,99633.55
2018-09-09T01:28:59.802Z,99643.63
2018-09-09T01:31:30.339Z,99641.59
2018-09-09T01:34:01.589Z,99637.11
2018-09-09T01:36:32.168Z,99642.20
2018-09-09T01:39:02.903Z,99629.84
2018-09-09T01:41:34.639Z,99639.51
2018-09-09T01:44:05.178Z,99629.67
2018-09-09T01:46:35.857Z,99634.72
2018-09-09T01:49:06.964Z,99634.22
2018-09-09T01:51:37.181Z,99634.92
2018-09-09T01:54:07.960Z,99639.98
2018-09-09T01:56:38.283Z,99642.45
2018-09-09T01:59:10.453Z,99638.92
2018-09-09T02:01:41.084Z,99646.38
2018-09-09T02:04:11.958Z,99641.46
2018-09-09T02:06:42.452Z,99639.03
2018-09-09T02:09:14.156Z,99644.17
2018-09-09T02:11:45.452Z,99640.78
2018-09-09T02:14:16.139Z,99640.28
2018-09-09T02:16:46.355Z,99641.33
2018-09-09T02:19:16.857Z,99644.22
2018-09-09T02:21:47.445Z,99649.58
2018-09-09T02:24:17.954Z,99647.11
2018-09-09T02:26:48.608Z,99644.45
2018-09-09T02:29:19.320Z,99650.92
2018-09-09T02:31:49.905Z,99651.02
2018-09-09T02:34:20.419Z,99648.94
2018-09-09T02:36:50.932Z,99644.99
2018-09-09T02:39:21.752Z,99647.45
2018-09-09T02:41:52.588Z,99650.90
2018-09-09T02:44:24.931Z,99655.14
2018-09-09T02:46:55.650Z,99654.41
2018-09-09T02:49:26.016Z,99657.70
2018-09-09T02:51:56.556Z,99654.42
2018-09-09T02:54:27.467Z,99663.73
2018-09-09T02:56:58.344Z,99653.27
2018-09-09T02:59:29.070Z,99658.53
2018-09-09T03:01:59.617Z,99660.80
2018-09-09T03:04:30.109Z,99663.10
2018-09-09T03:07:00.628Z,99665.19
2018-09-09T03:09:31.320Z,99654.27
2018-09-09T03:12:01.700Z,99659.61
2018-09-09T03:14:33.622Z,99668.06
2018-09-09T03:17:04.429Z,99667.66
2018-09-09T03:19:35.138Z,99669.63
2018-09-09T03:22:05.639Z,99666.97
2018-09-09T03:24:36.238Z,99661.17
2018-09-09T03:27:06.798Z,99661.61
2018-09-09T03:29:38.043Z,99666.27
2018-09-09T03:33:11.436Z,99660.72
2018-09-09T03:35:41.915Z,99664.43
2018-09-09T03:38:12.646Z,99669.39
2018-09-09T03:40:42.949Z,99667.69
2018-09-09T03:43:13.780Z,99662.59
2018-09-09T03:45:44.310Z,99667.34
2018-09-09T03:48:14.921Z,99664.88
2018-09-09T03:50:45.387Z,99673.60
2018-09-09T03:53:16.295Z,99657.08
2018-09-09T03:55:46.780Z,99665.23
2018-09-09T03:58:18.759Z,99667.81
2018-09-09T04:00:49.277Z,99675.89
2018-09-09T04:03:19.526Z,99674.72
2018-09-09T04:05:51.322Z,99675.09
2018-09-09T04:08:21.860Z,99672.72
2018-09-09T04:10:53.433Z,99676.95
2018-09-09T04:13:23.703Z,99677.77
2018-09-09T04:15:54.232Z,99678.87
2018-09-09T04:18:24.746Z,99681.44
2018-09-09T04:20:55.444Z,99680.78
2018-09-09T04:23:26.248Z,99680.61
2018-09-09T04:25:56.798Z,99685.22
2018-09-09T04:28:27.314Z,99681.28
2018-09-09T04:30:57.952Z,99683.64
2018-09-09T04:33:29.071Z,99689.03
2018-09-09T04:35:59.566Z,99683.22
2018-09-09T04:38:30.059Z,99689.56
2018-09-09T04:41:00.573Z,99690.08
2018-09-09T04:43:30.799Z,99687.41
2018-09-09T04:46:01.360Z,99692.45
2018-09-09T04:48:31.873Z,99697.01
2018-09-09T04:51:02.440Z,99695.52
2018-09-09T04:53:32.925Z,99695.22
2018-09-09T04:56:03.479Z,99700.91
2018-09-09T04:58:34.110Z,99696.87
2018-09-09T05:01:04.620Z,99698.10
2018-09-09T05:03:35.687Z,99707.31
2018-09-09T05:06:06.395Z,99702.30
2018-09-09T05:08:36.750Z,99703.13
2018-09-09T05:11:07.566Z,99707.98
2018-09-09T05:13:37.820Z,99704.95
2018-09-09T05:16:08.340Z,99697.36
2018-09-09T05:18:38.599Z,99694.00
2018-09-09T05:21:09.951Z,99698.23
2018-09-09T05:23:40.554Z,99698.86
2018-09-09T05:26:11.048Z,99708.21
2018-09-09T05:28:41.616Z,99710.01
2018-09-09T05:31:12.108Z,99708.21
2018-09-09T05:33:42.963Z,99707.44
2018-09-09T05:36:13.800Z,99707.27
2018-09-09T05:38:44.040Z,99710.62
2018-09-09T05:41:14.912Z,99714.42
2018-09-09T05:43:46.137Z,99716.29
2018-09-09T05:46:16.969Z,99714.59
2018-09-09T05:48:47.490Z,99718.70
2018-09-09T05:51:17.909Z,99723.12
2018-09-09T05:53:48.433Z,99718.48
2018-09-09T05:56:19.171Z,99714.53
2018-09-09T05:58:50.728Z,99720.04
2018-09-09T06:01:21.295Z,99722.89
2018-09-09T06:03:51.549Z,99724.45
2018-09-09T06:06:22.064Z,99724.15
2018-09-09T06:08:52.563Z,99724.17
2018-09-09T06:11:23.135Z,99722.20
2018-09-09T06:13:53.953Z,99736.33
2018-09-09T06:16:24.448Z,99727.90
2018-09-09T06:18:55.360Z,99726.89
2018-09-09T06:21:26.147Z,99732.00
2018-09-09T06:23:56.677Z,99739.12
2018-09-09T06:26:27.414Z,99735.55
2018-09-09T06:28:57.727Z,99737.28
2018-09-09T06:31:28.268Z,99741.13
2018-09-09T06:33:58.538Z,99740.31
2018-09-09T06:36:30.049Z,99746.88
2018-09-09T06:39:00.365Z,99741.79
2018-09-09T06:41:31.269Z,99741.08
2018-09-09T06:44:03.078Z,99741.89
2018-09-09T06:46:33.580Z,99742.48
2018-09-09T06:49:04.649Z,99746.11
2018-09-09T06:51:35.229Z,99750.95
2018-09-09T06:54:05.800Z,99752.02
2018-09-09T06:56:36.302Z,99758.39
2018-09-09T06:59:06.585Z,99751.20
2018-09-09T07:01:36.802Z,99759.57
2018-09-09T07:04:07.348Z,99760.94
2018-09-09T07:06:37.831Z,99763.63
2018-09-09T07:09:10.121Z,99762.77
2018-09-09T07:11:40.708Z,99766.81
2018-09-09T07:14:11.532Z,99769.38
2018-09-09T07:16:42.142Z,99769.19
2018-09-09T07:19:12.697Z,99770.07
2018-09-09T07:21:43.961Z,99775.39
2018-09-09T07:24:14.594Z,99772.05
2018-09-09T07:26:45.124Z,99767.23
2018-09-09T07:29:15.398Z,99770.67
2018-09-09T07:31:46.164Z,99773.70
2018-09-09T07:34:17.173Z,99771.72
2018-09-09T07:36:47.861Z,99775.00
2018-09-09T07:39:19.949Z,99771.09
2018-09-09T07:41:50.533Z,99781.08
2018-09-09T07:44:21.256Z,99775.95
2018-09-09T07:46:51.758Z,99774.84
2018-09-09T07:49:22.519Z,99778.23
2018-09-09T07:51:53.246Z,99777.72
2018-09-09T07:54:23.661Z,99781.22
2018-09-09T07:56:54.187Z,99781.23
2018-09-09T07:59:24.721Z,99777.25
2018-09-09T08:01:55.436Z,99774.58
2018-09-09T08:04:25.819Z,99783.49
2018-09-09T08:06:56.371Z,99778.23
2018-09-09T08:09:27.183Z,99780.81
2018-09-09T08:11:57.795Z,99781.53
2018-09-09T08:14:28.471Z,99784.84
2018-09-09T08:16:58.998Z,99784.93
2018-09-09T08:19:29.488Z,99791.14
2018-09-09T08:21:59.975Z,99794.70
2018-09-09T08:24:30.717Z,99782.30
2018-09-09T08:27:01.196Z,99790.17
2018-09-09T08:29:31.829Z,99788.87
2018-09-09T08:32:02.878Z,99780.50
2018-09-09T08:34:33.697Z,99785.59
2018-09-09T08:37:04.288Z,99773.52
2018-09-09T08:39:34.552Z,99779.44
2018-09-09T08:42:05.338Z,99776.36
2018-09-09T08:44:36.084Z,99781.40
2018-09-09T08:47:06.632Z,99783.61
2018-09-09T08:49:37.169Z,99776.09
2018-09-09T08:52:07.763Z,99773.39
2018-09-09T08:54:43.469Z,99774.86
2018-09-09T08:57:14.520Z,99763.45
2018-09-09T08:59:45.092Z,99713.30
2018-09-09T09:02:15.698Z,99760.76
2018-09-09T09:04:46.434Z,99764.55
2018-09-09T09:07:17.041Z,99761.16
2018-09-09T09:09:47.742Z,99763.63
2018-09-09T09:12:18.027Z,99766.78
2018-09-09T09:14:48.746Z,99765.36
2018-09-09T09:17:19.437Z,99758.47
2018-09-09T09:19:49.951Z,99758.26
2018-09-09T09:22:20.163Z,99757.75
2018-09-09T09:24:50.395Z,99761.88
2018-09-09T09:27:20.940Z,99761.70
2018-09-09T09:29:58.487Z,99757.80
2018-09-09T09:32:29.023Z,99754.32
2018-09-09T09:34:59.333Z,99759.88
2018-09-09T09:37:31.003Z,99755.28
2018-09-09T09:40:09.673Z,99751.70
2018-09-09T09:42:39.958Z,99754.52
2018-09-09T09:45:11.704Z,99747.12
2018-09-09T09:47:42.457Z,99749.14
2018-09-09T09:50:12.972Z,99751.82
2018-09-09T09:52:43.212Z,99747.42
2018-09-09T09:55:13.811Z,99748.86
2018-09-09T09:57:44.552Z,99738.16
2018-09-09T10:00:20.399Z,99739.92
2018-09-09T10:02:51.038Z,99738.67
2018-09-09T10:05:22.092Z,99738.93
2018-09-09T10:07:52.749Z,99737.35
2018-09-09T10:10:23.001Z,99727.32
2018-09-09T10:12:53.516Z,99722.91
2018-09-09T10:15:24.021Z,99712.41
2018-09-09T10:17:54.277Z,99715.65
2018-09-09T10:20:24.772Z,99718.83
2018-09-09T10:22:55.317Z,99730.72
2018-09-09T10:25:25.916Z,99731.27
2018-09-09T10:27:56.498Z,99729.42
2018-09-09T10:30:27.689Z,99730.32
2018-09-09T10:32:57.949Z,99719.36
2018-09-09T10:35:28.467Z,99716.63
2018-09-09T10:37:59.219Z,99734.34
2018-09-09T10:40:29.951Z,99725.84
2018-09-09T10:43:00.199Z,99719.77
2018-09-09T10:45:30.768Z,99718.41
2018-09-09T10:48:01.524Z,99707.53
2018-09-09T10:50:31.720Z,99712.81
2018-09-09T10:53:02.400Z,99711.73
2018-09-09T10:55:32.900Z,99706.75
2018-09-09T10:58:03.762Z,99701.98
2018-09-09T11:00:34.800Z,99699.20
2018-09-09T11:03:05.475Z,99695.31
2018-09-09T11:05:36.852Z,99688.72
2018-09-09T11:08:08.160Z,99693.33
2018-09-09T11:10:39.008Z,99701.56
2018-09-09T11:13:09.839Z,99693.73
2018-09-09T11:15:42.274Z,99698.56
2018-09-09T11:18:14.333Z,99702.13
2018-09-09T11:20:54.809Z,99694.91
2018-09-09T11:23:25.360Z,99691.91
2018-09-09T11:25:56.160Z,99694.55
2018-09-09T11:28:27.673Z,99696.67
2018-09-09T11:30:58.166Z,99698.61
2018-09-09T11:33:28.639Z,99696.16
2018-09-09T11:35:59.129Z,99702.19
2018-09-09T11:38:29.328Z,99703.01
2018-09-09T11:40:59.937Z,99697.48
2018-09-09T11:43:30.819Z,99696.71
2018-09-09T11:46:03.065Z,99690.84
2018-09-09T11:48:33.883Z,99691.47
2018-09-09T11:51:04.454Z,99689.77
2018-09-09T11:53:40.184Z,99688.89
2018-09-09T11:56:10.776Z,99679.98
2018-09-09T11:58:41.022Z,99679.70
2018-09-09T12:01:11.592Z,99681.53
2018-09-09T12:03:42.324Z,99673.44
2018-09-09T12:06:14.416Z,99675.45
2018-09-09T12:08:44.944Z,99670.41
2018-09-09T12:11:15.805Z,99665.89
2018-09-09T12:13:46.716Z,99664.02
2018-09-09T12:16:18.079Z,99655.74
2018-09-09T12:18:49.074Z,99657.37
2018-09-09T12:21:24.936Z,99651.17
2018-09-09T12:23:56.455Z,99655.31
2018-09-09T12:26:28.248Z,99653.86
2018-09-09T12:28:59.578Z,99657.61
2018-09-09T12:31:30.155Z,99655.55
2018-09-09T12:34:01.400Z,99656.12
2018-09-09T12:36:32.611Z,99656.48
2018-09-09T12:39:03.625Z,99646.05
2018-09-09T12:41:39.275Z,99649.23
2018-09-09T12:44:15.375Z,99635.83
2018-09-09T12:46:51.185Z,99648.65
2018-09-09T12:49:46.010Z,99645.89
2018-09-09T12:52:26.685Z,99562.83
2018-09-09T12:54:57.739Z,99639.56
2018-09-09T12:57:28.455Z,99642.30
2018-09-09T12:59:58.800Z,99642.57
2018-09-09T13:02:30.453Z,99638.49
2018-09-09T13:05:00.961Z,99644.72
2018-09-09T13:07:31.406Z,99634.16
2018-09-09T13:10:01.944Z,99628.98
2018-09-09T13:12:38.563Z,99634.89
2018-09-09T13:15:10.846Z,99627.80
2018-09-09T13:17:41.100Z,99627.54
2018-09-09T13:20:11.647Z,99627.72
2018-09-09T13:22:42.742Z,99629.13
2018-09-09T13:25:13.317Z,99617.64
2018-09-09T13:27:43.846Z,99621.98
2018-09-09T13:30:14.412Z,99619.45
2018-09-09T13:32:44.762Z,99618.14
2018-09-09T13:35:15.496Z,99625.19
2018-09-09T13:37:46.205Z,99615.24
2018-09-09T13:40:16.799Z,99620.00
2018-09-09T13:42:47.377Z,99619.19
2018-09-09T13:45:17.996Z,99615.74
2018-09-09T13:47:48.792Z,99616.30
2018-09-09T13:50:19.738Z,99621.39
2018-09-09T13:52:50.145Z,99621.73
2018-09-09T13:55:20.867Z,99619.97
2018-09-09T13:57:51.511Z,99621.65
2018-09-09T14:00:21.844Z,99619.34
2018-09-09T14:02:52.369Z,99612.36
2018-09-09T14:05:22.812Z,99606.53
2018-09-09T14:07:53.064Z,99612.09
2018-09-09T14:10:28.992Z,99621.17
2018-09-09T14:13:11.684Z,99618.16
2018-09-09T14:15:44.736Z,99612.98
2018-09-09T14:18:15.720Z,99617.33
2018-09-09T14:20:47.271Z,99608.67
2018-09-09T14:23:18.000Z,99612.55
2018-09-09T14:25:49.139Z,99614.61
2018-09-09T14:28:19.682Z,99612.10
2018-09-09T14:30:50.270Z,99604.37
2018-09-09T14:33:21.959Z,99610.19
2018-09-09T14:35:52.569Z,99609.70
2018-09-09T14:38:25.321Z,99611.56
2018-09-09T14:40:55.900Z,99609.17
2018-09-09T14:43:27.085Z,99602.61
2018-09-09T14:45:57.601Z,99622.45
2018-09-09T14:48:28.416Z,99616.38
2018-09-09T14:50:58.777Z,99615.38
2018-09-09T14:53:30.045Z,99611.91
2018-09-09T14:56:31.376Z,99610.59
2018-09-09T14:59:03.618Z,99611.05
2018-09-09T15:01:34.745Z,99608.20
2018-09-09T15:04:05.543Z,99613.48
2018-09-09T15:06:36.627Z,99623.48
2018-09-09T15:09:09.223Z,99618.33
2018-09-09T15:11:40.578Z,99617.98
2018-09-09T15:14:11.016Z,99617.88
2018-09-09T15:16:41.850Z,99610.77
2018-09-09T15:19:13.217Z,99618.96
2018-09-09T15:21:43.738Z,99615.88
2018-09-09T15:24:14.005Z,99619.29
2018-09-09T15:26:44.323Z,99617.36
2018-09-09T15:29:14.781Z,99620.09
2018-09-09T15:31:45.324Z,99619.46
2018-09-09T15:34:16.233Z,99618.31
2018-09-09T15:36:46.960Z,99613.58
2018-09-09T15:39:17.498Z,99612.97
2018-09-09T15:41:50.334Z,99612.84
2018-09-09T15:44:24.296Z,99612.55
2018-09-09T15:46:54.781Z,99605.16
2018-09-09T15:49:25.292Z,99603.01
2018-09-09T15:51:55.934Z,99603.27
2018-09-09T15:54:26.744Z,99606.90
2018-09-09T15:56:56.982Z,99610.26
2018-09-09T15:59:27.633Z,99607.70
2018-09-09T16:01:57.811Z,99603.56
2018-09-09T16:04:28.040Z,99608.20
2018-09-09T16:06:59.240Z,99606.52
2018-09-09T16:09:29.889Z,99619.37
2018-09-09T16:12:00.358Z,99616.91
2018-09-09T16:14:30.919Z,99613.31
2018-09-09T16:17:01.950Z,99622.94
2018-09-09T16:19:36.760Z,99626.99
2018-09-09T16:22:07.289Z,99626.39
2018-09-09T16:24:37.824Z,99635.54
2018-09-09T16:27:08.339Z,99633.61
2018-09-09T16:29:41.246Z,99635.58
2018-09-09T16:32:11.842Z,99612.19
2018-09-09T16:34:43.396Z,99628.34
2018-09-09T16:37:15.170Z,99626.75
2018-09-09T16:39:47.103Z,99624.50
2018-09-09T16:42:25.454Z,99625.92
2018-09-09T16:44:59.076Z,99622.78
2018-09-09T16:47:29.955Z,99619.30
2018-09-09T16:50:01.407Z,99619.05
2018-09-09T16:52:34.088Z,99608.21
2018-09-09T16:55:11.992Z,99615.05
2018-09-09T16:57:49.012Z,99622.92
2018-09-09T17:00:23.361Z,99617.19
2018-09-09T17:02:54.520Z,99614.30
2018-09-09T17:05:30.882Z,99614.56
2018-09-09T17:08:01.476Z,99612.95
2018-09-09T17:10:33.926Z,99603.89
2018-09-09T17:13:07.072Z,99594.67
2018-09-09T17:15:47.207Z,99601.50
2018-09-09T17:18:41.542Z,99599.45
2018-09-09T17:21:20.357Z,99619.53
2018-09-09T17:23:59.511Z,99624.37
2018-09-09T17:26:30.487Z,99623.88
2018-09-09T17:29:01.740Z,99614.97
2018-09-09T17:31:32.065Z,99605.95
2018-09-09T17:34:03.124Z,99609.19
2018-09-09T17:36:34.065Z,99606.00
2018-09-09T17:39:06.604Z,99611.83
2018-09-09T17:41:44.410Z,99625.09
2018-09-09T17:44:17.443Z,99627.30
2018-09-09T17:46:50.736Z,99621.59
2018-09-09T17:54:55.903Z,99618.69
2018-09-09T17:57:27.418Z,99622.69
2018-09-09T17:59:57.930Z,99624.05
2018-09-09T18:02:29.598Z,99627.75
2018-09-09T18:05:06.916Z,99640.86
2018-09-09T18:07:43.749Z,99643.52
2018-09-09T18:10:14.712Z,99644.66
2018-09-09T18:12:45.723Z,99643.31
2018-09-09T18:15:16.290Z,99650.19
2018-09-09T18:17:46.664Z,99652.94
2018-09-09T18:20:17.456Z,99653.67
2018-09-09T18:22:48.070Z,99659.36
2018-09-09T18:25:18.633Z,99670.47
2018-09-09T18:27:48.901Z,99666.42
2018-09-09T18:30:19.648Z,99673.29
2018-09-09T18:32:50.272Z,99676.17
2018-09-09T18:35:20.633Z,99677.97
2018-09-09T18:37:51.189Z,99681.61
2018-09-09T18:40:21.852Z,99689.52
2018-09-09T18:42:52.425Z,99690.25
2018-09-09T18:45:23.144Z,99665.60
2018-09-09T18:47:54.184Z,99680.33
2018-09-09T18:50:25.827Z,99677.33
2018-09-09T18:52:56.336Z,99676.50
2018-09-09T18:55:27.316Z,99679.38
2018-09-09T18:57:58.356Z,99676.56
2018-09-09T19:00:28.908Z,99684.42
2018-09-09T19:02:59.172Z,99678.30
2018-09-09T19:05:30.500Z,99682.31
2018-09-09T19:08:01.292Z,99680.86
2018-09-09T19:10:31.789Z,99666.76
2018-09-09T19:13:02.292Z,99671.53
2018-09-09T19:15:32.949Z,99675.05
2018-09-09T19:18:03.581Z,99671.81
2018-09-09T19:20:34.197Z,99678.23
2018-09-09T19:23:05.419Z,99679.12
2018-09-09T19:25:36.208Z,99690.14
2018-09-09T19:28:07.284Z,99683.77
2018-09-09T19:30:38.165Z,99684.78
2018-09-09T19:33:09.617Z,99684.36
2018-09-09T19:35:40.330Z,99685.77
2018-09-09T19:38:10.605Z,99686.59
2018-09-09T19:40:41.198Z,99685.13
2018-09-09T19:43:11.492Z,99688.53
2018-09-09T19:45:42.019Z,99688.06
2018-09-09T19:48:12.880Z,99687.79
2018-09-09T19:50:43.714Z,99685.25
2018-09-09T19:53:14.457Z,99681.48
2018-09-09T19:55:45.003Z,99679.54
2018-09-09T19:58:15.602Z,99684.73
2018-09-09T20:00:46.300Z,99691.21
2018-09-09T20:03:16.778Z,99691.91
2018-09-09T20:05:47.144Z,99697.27
2018-09-09T20:08:17.672Z,99696.44
2018-09-09T20:10:47.982Z,99693.05
2018-09-09T20:13:18.436Z,99693.52
2018-09-09T20:15:48.705Z,99691.00
2018-09-09T20:18:19.368Z,99676.73
2018-09-09T20:20:49.693Z,99567.48
2018-09-09T20:23:20.328Z,99700.10
2018-09-09T20:25:50.898Z,99692.14
2018-09-09T20:28:21.892Z,99690.36
2018-09-09T20:30:52.517Z,99691.31
2018-09-09T20:33:22.762Z,99694.63
2018-09-09T20:35:53.284Z,99697.29
2018-09-09T20:38:23.527Z,99691.70
2018-09-09T20:40:53.732Z,99700.33
2018-09-09T20:43:24.268Z,99697.41
2018-09-09T20:45:55.161Z,99696.97
2018-09-09T20:48:25.952Z,99681.16
2018-09-09T20:50:56.518Z,99694.14
2018-09-09T20:53:27.237Z,99695.04
2018-09-09T20:55:59.957Z,99700.28
2018-09-09T20:58:30.467Z,99699.87
2018-09-09T21:01:00.964Z,99694.73
2018-09-09T21:03:32.168Z,99696.55
2018-09-09T21:06:02.993Z,99698.78
2018-09-09T21:08:33.669Z,99693.16
2018-09-09T21:11:04.577Z,99698.61
2018-09-09T21:13:35.078Z,99691.69
2018-09-09T21:16:05.999Z,99696.08
2018-09-09T21:18:36.664Z,99704.91
2018-09-09T21:21:07.057Z,99698.61
2018-09-09T21:23:37.615Z,99700.23
2018-09-09T21:26:08.445Z,99699.13
2018-09-09T21:28:39.578Z,99702.09
2018-09-09T21:31:10.232Z,99699.94
2018-09-09T21:33:40.735Z,99703.73
2018-09-09T21:36:11.150Z,99693.63
2018-09-09T21:38:41.731Z,99695.73
2018-09-09T21:41:11.927Z,99700.76
2018-09-09T21:43:42.571Z,99695.34
2018-09-09T21:46:13.615Z,99698.40
2018-09-09T21:48:44.514Z,99694.23
2018-09-09T21:51:15.260Z,99697.35
2018-09-09T21:53:45.900Z,99699.59
2018-09-09T21:56:16.634Z,99694.16
2018-09-09T21:58:47.147Z,99698.14
2018-09-09T22:02:21.094Z,99701.48
2018-09-09T22:04:51.811Z,99703.89
2018-09-09T22:07:22.692Z,99693.16
2018-09-09T22:09:53.296Z,99694.36
2018-09-09T22:12:24.086Z,99698.00
2018-09-09T22:14:54.595Z,99701.31
2018-09-09T22:17:25.106Z,99700.94
2018-09-09T22:19:55.355Z,99698.01
2018-09-09T22:22:25.863Z,99711.30
2018-09-09T22:24:56.818Z,99698.65
2018-09-09T22:27:27.307Z,99701.69
2018-09-09T22:29:58.342Z,99706.23
2018-09-09T22:32:28.872Z,99700.33
2018-09-09T22:34:59.417Z,99700.81
2018-09-09T22:37:30.078Z,99700.69
2018-09-09T22:40:00.751Z,99703.28
2018-09-09T22:42:35.259Z,99697.55
2018-09-09T22:45:08.850Z,99702.04
2018-09-09T22:47:39.742Z,99698.63
2018-09-09T22:50:10.334Z,99699.98
2018-09-09T22:52:41.103Z,99701.30
2018-09-09T22:55:12.695Z,99701.44
2018-09-09T22:57:43.222Z,99708.03
2018-09-09T23:00:13.766Z,99704.03
2018-09-09T23:02:44.361Z,99706.04
2018-09-09T23:05:15.525Z,99709.90
2018-09-09T23:07:45.889Z,99709.80
2018-09-09T23:10:16.644Z,99702.33
2018-09-09T23:12:47.227Z,99704.20
2018-09-09T23:15:22.032Z,99696.77
2018-09-09T23:17:54.989Z,99712.86
2018-09-09T23:20:25.492Z,99704.14
2018-09-09T23:22:55.998Z,99708.19
2018-09-09T23:25:26.488Z,99703.66
2018-09-09T23:27:57.420Z,99705.66
2018-09-09T23:30:27.957Z,99707.69
2018-09-09T23:32:59.103Z,99705.31
2018-09-09T23:35:29.682Z,99704.86
2018-09-09T23:38:00.204Z,99705.76
2018-09-09T23:40:31.002Z,99706.16
2018-09-09T23:43:01.546Z,99704.70
2018-09-09T23:45:32.068Z,99700.16
2018-09-09T23:48:02.880Z,99708.23
2018-09-09T23:50:33.430Z,99690.91
2018-09-09T23:53:03.936Z,99698.08
2018-09-09T23:55:34.474Z,99709.79
2018-09-09T23:58:04.757Z,99704.66
